createdAt,value
2019-06-08T00:02:23.011Z,8.53
2019-06-08T00:04:52.741Z,7.62
2019-06-08T00:07:23.079Z,7.87
2019-06-08T00:09:52.947Z,8.05
2019-06-08T00:12:23.243Z,7.90
2019-06-08T00:14:52.975Z,7.78
2019-06-08T00:17:35.819Z,9.15
2019-06-08T00:19:54.079Z,7.78
2019-06-08T00:22:23.992Z,6.83
2019-06-08T00:24:53.810Z,5.25
2019-06-08T00:27:24.613Z,4.55
2019-06-08T00:29:54.369Z,3.87
2019-06-08T00:32:25.103Z,3.40
2019-06-08T00:34:54.757Z,3.90
2019-06-08T00:37:24.987Z,3.52
2019-06-08T00:39:54.705Z,3.33
2019-06-08T00:42:25.628Z,2.83
2019-06-08T00:44:55.383Z,2.72
2019-06-08T00:47:25.018Z,3.20
2019-06-08T00:49:54.674Z,2.85
2019-06-08T00:52:25.578Z,2.70
2019-06-08T00:54:56.475Z,2.22
2019-06-08T00:57:26.296Z,2.47
2019-06-08T00:59:55.957Z,2.08
2019-06-08T01:02:26.780Z,1.35
2019-06-08T01:04:56.623Z,1.42
2019-06-08T01:07:26.390Z,1.37
2019-06-08T01:09:56.066Z,1.20
2019-06-08T01:12:26.813Z,1.12
2019-06-08T01:14:56.625Z,1.47
2019-06-08T01:17:27.536Z,1.70
2019-06-08T01:19:57.294Z,2.17
2019-06-08T01:22:27.735Z,2.00
2019-06-08T01:24:57.537Z,2.55
2019-06-08T01:27:28.194Z,10.65
2019-06-08T01:29:58.035Z,2.50
2019-06-08T01:32:28.561Z,2.60
2019-06-08T01:34:59.319Z,3.12
2019-06-08T01:37:31.156Z,3.25
2019-06-08T01:40:00.990Z,3.35
2019-06-08T01:42:31.888Z,3.80
2019-06-08T01:45:01.755Z,3.02
2019-06-08T01:47:32.589Z,3.50
2019-06-08T01:50:02.237Z,3.10
2019-06-08T01:52:33.003Z,3.30
2019-06-08T01:55:05.463Z,2.42
2019-06-08T01:57:35.097Z,2.75
2019-06-08T02:00:29.246Z,1.98
2019-06-08T02:02:40.258Z,2.30
2019-06-08T02:05:10.126Z,2.22
2019-06-08T02:07:39.755Z,2.45
2019-06-08T02:10:09.795Z,2.40
2019-06-08T02:12:39.451Z,2.72
2019-06-08T02:15:09.579Z,2.05
2019-06-08T02:17:39.236Z,2.55
2019-06-08T02:20:10.858Z,1.55
2019-06-08T02:22:40.509Z,2.30
2019-06-08T02:25:10.246Z,2.47
2019-06-08T02:27:39.883Z,2.10
2019-06-08T02:30:11.589Z,2.40
2019-06-08T02:32:41.205Z,1.80
2019-06-08T02:35:10.947Z,1.60
2019-06-08T02:37:40.722Z,1.90
2019-06-08T02:40:12.099Z,1.45
2019-06-08T02:42:41.739Z,1.80
2019-06-08T02:45:11.872Z,2.50
2019-06-08T02:47:41.502Z,2.55
2019-06-08T02:50:12.654Z,1.82
2019-06-08T02:52:44.454Z,1.52
2019-06-08T02:55:14.104Z,2.05
2019-06-08T02:57:45.935Z,1.70
2019-06-08T03:00:16.220Z,1.55
2019-06-08T03:02:47.744Z,1.30
2019-06-08T03:05:17.377Z,1.60
2019-06-08T03:07:50.235Z,1.20
2019-06-08T03:10:19.869Z,1.57
2019-06-08T03:12:52.460Z,1.30
2019-06-08T03:15:32.434Z,1.02
2019-06-08T03:18:01.610Z,0.82
2019-06-08T03:20:31.659Z,0.60
2019-06-08T03:23:02.673Z,0.60
2019-06-08T03:25:35.284Z,0.78
2019-06-08T03:28:03.659Z,0.60
2019-06-08T03:30:35.263Z,0.40
2019-06-08T03:33:04.689Z,0.85
2019-06-08T03:35:36.367Z,0.93
2019-06-08T03:38:05.846Z,0.60
2019-06-08T03:40:35.857Z,0.65
2019-06-08T03:43:05.647Z,0.70
2019-06-08T03:45:36.360Z,0.60
2019-06-08T03:48:06.031Z,0.80
2019-06-08T03:50:37.465Z,0.60
2019-06-08T03:53:07.041Z,0.80
2019-06-08T03:55:37.979Z,0.60
2019-06-08T03:58:10.439Z,0.80
2019-06-08T04:00:40.461Z,0.80
2019-06-08T04:03:10.243Z,0.72
2019-06-08T04:05:40.844Z,0.88
2019-06-08T04:08:11.258Z,0.90
2019-06-08T04:10:42.100Z,0.60
2019-06-08T04:13:12.356Z,0.70
2019-06-08T04:15:42.607Z,0.78
2019-06-08T04:18:13.307Z,0.70
2019-06-08T04:20:45.773Z,0.80
2019-06-08T04:23:14.301Z,0.75
2019-06-08T04:25:45.110Z,0.72
2019-06-08T04:28:15.211Z,0.70
2019-06-08T04:30:45.323Z,1.20
2019-06-08T04:33:16.155Z,0.95
2019-06-08T04:35:47.206Z,1.20
2019-06-08T04:38:17.114Z,1.10
2019-06-08T04:40:48.506Z,0.70
2019-06-08T04:43:18.089Z,0.75
2019-06-08T04:45:49.778Z,0.70
2019-06-08T04:48:19.148Z,0.80
2019-06-08T04:50:49.811Z,1.00
2019-06-08T04:53:19.579Z,1.15
2019-06-08T04:55:49.472Z,1.42
2019-06-08T04:58:19.247Z,1.65
2019-06-08T05:00:50.783Z,1.85
2019-06-08T05:03:20.243Z,2.50
2019-06-08T05:05:50.272Z,3.17
2019-06-08T05:08:21.001Z,3.15
2019-06-08T05:10:50.625Z,3.60
2019-06-08T05:13:20.270Z,3.55
2019-06-08T05:15:50.393Z,3.25
2019-06-08T05:18:21.136Z,2.87
2019-06-08T05:20:51.493Z,2.25
2019-06-08T05:23:21.323Z,2.30
2019-06-08T05:25:51.011Z,1.40
2019-06-08T05:28:20.647Z,1.80
2019-06-08T05:30:50.306Z,1.15
2019-06-08T05:33:19.965Z,1.30
2019-06-08T05:35:49.840Z,0.98
2019-06-08T05:38:19.518Z,0.82
2019-06-08T05:40:49.905Z,0.80
2019-06-08T05:43:19.640Z,0.72
2019-06-08T05:45:49.957Z,0.60
2019-06-08T05:48:19.689Z,0.78
2019-06-08T05:51:00.427Z,0.85
2019-06-08T05:53:21.334Z,1.00
2019-06-08T05:55:51.011Z,0.60
2019-06-08T05:58:20.647Z,1.00
2019-06-08T06:00:50.657Z,1.00
2019-06-08T06:03:20.559Z,1.00
2019-06-08T06:05:50.802Z,1.30
2019-06-08T06:08:21.423Z,1.02
2019-06-08T06:10:51.426Z,1.07
2019-06-08T06:13:21.167Z,1.20
2019-06-08T06:15:51.732Z,1.20
2019-06-08T06:18:22.463Z,1.20
2019-06-08T06:20:52.060Z,1.60
2019-06-08T06:23:22.319Z,1.27
2019-06-08T06:25:51.972Z,1.60
2019-06-08T06:28:21.612Z,1.80
2019-06-08T06:30:52.220Z,1.95
2019-06-08T06:33:23.013Z,1.70
2019-06-08T06:35:52.643Z,1.80
2019-06-08T06:38:23.310Z,1.07
2019-06-08T06:40:52.952Z,1.60
2019-06-08T06:43:22.782Z,1.50
2019-06-08T06:45:52.439Z,1.65
2019-06-08T06:48:23.578Z,1.50
2019-06-08T06:50:53.694Z,1.40
2019-06-08T06:53:23.326Z,1.25
2019-06-08T06:55:53.424Z,1.37
2019-06-08T06:58:23.285Z,1.50
2019-06-08T07:00:53.707Z,1.77
2019-06-08T07:03:23.620Z,1.27
2019-06-08T07:05:54.261Z,1.82
2019-06-08T07:08:23.992Z,1.42
2019-06-08T07:10:54.776Z,1.50
2019-06-08T07:13:24.921Z,1.45
2019-06-08T07:15:58.002Z,1.45
2019-06-08T07:18:25.905Z,1.00
2019-06-08T07:20:55.544Z,1.10
2019-06-08T07:23:25.172Z,1.02
2019-06-08T07:25:54.838Z,1.45
2019-06-08T07:28:24.664Z,1.40
2019-06-08T07:30:54.899Z,1.25
2019-06-08T07:33:24.619Z,0.98
2019-06-08T07:35:55.297Z,1.20
2019-06-08T07:38:25.098Z,0.95
2019-06-08T07:40:58.476Z,1.20
2019-06-08T07:43:26.123Z,1.35
2019-06-08T07:45:56.282Z,1.37
2019-06-08T07:48:26.097Z,0.82
2019-06-08T07:50:56.440Z,1.25
2019-06-08T07:53:26.254Z,1.32
2019-06-08T07:55:56.357Z,1.20
2019-06-08T07:58:26.127Z,1.25
2019-06-08T08:01:02.621Z,1.20
2019-06-08T08:03:27.201Z,1.20
2019-06-08T08:05:56.846Z,1.50
2019-06-08T08:08:26.476Z,1.45
2019-06-08T08:10:56.704Z,1.50
2019-06-08T08:13:26.788Z,1.57
2019-06-08T08:15:58.664Z,1.40
2019-06-08T08:18:27.903Z,1.20
2019-06-08T08:20:59.214Z,1.52
2019-06-08T08:23:28.975Z,1.52
2019-06-08T08:26:01.363Z,1.67
2019-06-08T08:28:29.967Z,1.55
2019-06-08T08:31:01.677Z,1.47
2019-06-08T08:33:30.970Z,1.87
2019-06-08T08:36:01.979Z,1.22
2019-06-08T08:38:31.815Z,1.47
2019-06-08T08:41:07.191Z,1.65
2019-06-08T08:43:32.851Z,1.50
2019-06-08T08:46:02.508Z,1.50
2019-06-08T08:48:33.323Z,1.40
2019-06-08T08:51:03.617Z,1.62
2019-06-08T08:53:33.600Z,1.30
2019-06-08T08:56:03.255Z,1.32
2019-06-08T08:58:32.887Z,1.55
2019-06-08T09:01:03.696Z,1.40
2019-06-08T09:03:33.998Z,1.32
2019-06-08T09:06:04.165Z,1.60
2019-06-08T09:08:34.039Z,1.30
2019-06-08T09:11:04.073Z,1.10
2019-06-08T09:13:33.905Z,1.55
2019-06-08T09:16:04.378Z,1.32
2019-06-08T09:18:34.287Z,1.20
2019-06-08T09:21:04.390Z,1.67
2019-06-08T09:23:34.250Z,1.30
2019-06-08T09:26:08.995Z,1.45
2019-06-08T09:28:35.235Z,0.98
2019-06-08T09:31:08.268Z,1.15
2019-06-08T09:33:38.815Z,1.12
2019-06-08T09:36:08.664Z,1.45
2019-06-08T09:38:39.915Z,1.00
2019-06-08T09:41:09.546Z,1.27
2019-06-08T09:43:39.210Z,0.90
2019-06-08T09:46:09.470Z,0.95
2019-06-08T09:48:39.153Z,1.00
2019-06-08T09:51:09.304Z,0.90
2019-06-08T09:53:41.715Z,0.88
2019-06-08T09:56:10.616Z,1.37
2019-06-08T09:58:40.317Z,1.50
2019-06-08T10:01:12.255Z,1.60
2019-06-08T10:03:41.469Z,1.00
2019-06-08T10:06:12.597Z,1.00
2019-06-08T10:08:42.567Z,0.85
2019-06-08T10:11:12.257Z,1.00
2019-06-08T10:13:43.416Z,1.10
2019-06-08T10:16:13.405Z,1.32
2019-06-08T10:18:43.104Z,1.20
2019-06-08T10:21:12.774Z,1.00
2019-06-08T10:23:42.449Z,1.17
2019-06-08T10:26:12.369Z,0.98
2019-06-08T10:28:42.014Z,1.10
2019-06-08T10:31:11.711Z,1.15
2019-06-08T10:33:42.428Z,1.00
2019-06-08T10:36:13.008Z,1.12
2019-06-08T10:38:42.961Z,1.10
2019-06-08T10:41:20.897Z,0.70
2019-06-08T10:43:44.063Z,1.10
2019-06-08T10:46:17.213Z,0.90
2019-06-08T10:48:45.045Z,0.90
2019-06-08T10:51:14.719Z,0.80
2019-06-08T10:53:49.322Z,1.10
2019-06-08T10:56:15.830Z,1.62
2019-06-08T10:58:49.486Z,1.30
2019-06-08T11:01:18.776Z,1.05
2019-06-08T11:03:48.867Z,1.30
2019-06-08T11:06:19.017Z,1.12
2019-06-08T11:08:49.769Z,1.05
2019-06-08T11:11:20.493Z,0.90
2019-06-08T11:13:50.682Z,1.10
2019-06-08T11:16:20.267Z,0.95
2019-06-08T11:18:51.154Z,1.10
2019-06-08T11:21:21.035Z,1.20
2019-06-08T11:24:05.627Z,0.90
2019-06-08T11:26:24.434Z,1.12
2019-06-08T11:28:53.451Z,1.12
2019-06-08T11:31:23.116Z,1.50
2019-06-08T11:33:52.784Z,1.62
2019-06-08T11:36:22.419Z,1.15
2019-06-08T11:38:52.114Z,1.07
2019-06-08T11:41:22.933Z,0.93
2019-06-08T11:43:52.688Z,0.60
2019-06-08T11:46:22.395Z,0.90
2019-06-08T11:48:52.045Z,0.75
2019-06-08T11:51:21.722Z,0.45
2019-06-08T11:53:52.619Z,0.93
2019-06-08T11:56:22.583Z,0.98
2019-06-08T11:58:52.923Z,1.10
2019-06-08T12:01:24.453Z,1.00
2019-06-08T12:03:54.091Z,1.32
2019-06-08T12:06:23.762Z,1.10
2019-06-08T12:08:53.396Z,0.70
2019-06-08T12:11:23.296Z,0.72
2019-06-08T12:13:53.132Z,0.50
2019-06-08T12:16:22.765Z,0.70
2019-06-08T12:18:52.442Z,0.93
2019-06-08T12:21:22.101Z,0.80
2019-06-08T12:23:51.737Z,0.68
2019-06-08T12:26:21.394Z,1.00
2019-06-08T12:28:51.028Z,0.80
2019-06-08T12:31:22.685Z,0.90
2019-06-08T12:33:52.013Z,1.07
2019-06-08T12:36:22.768Z,0.50
2019-06-08T12:38:52.426Z,0.70
2019-06-08T12:41:22.065Z,0.65
2019-06-08T12:43:51.700Z,0.80
2019-06-08T12:46:21.632Z,0.60
2019-06-08T12:48:51.291Z,0.68
2019-06-08T12:51:21.480Z,0.60
2019-06-08T12:53:51.460Z,0.55
2019-06-08T12:56:23.986Z,0.90
2019-06-08T12:58:52.449Z,0.60
2019-06-08T13:01:23.181Z,0.55
2019-06-08T13:03:52.844Z,0.72
2019-06-08T13:06:22.472Z,0.72
2019-06-08T13:08:52.103Z,0.68
2019-06-08T13:11:21.763Z,1.10
2019-06-08T13:13:51.400Z,0.90
2019-06-08T13:16:24.171Z,0.72
2019-06-08T13:18:52.409Z,0.50
2019-06-08T13:21:34.207Z,0.80
2019-06-08T13:23:53.293Z,0.70
2019-06-08T13:26:27.866Z,0.50
2019-06-08T13:28:54.282Z,0.80
2019-06-08T13:31:24.741Z,0.60
2019-06-08T13:33:54.554Z,0.82
2019-06-08T13:36:27.191Z,0.70
2019-06-08T13:38:55.528Z,0.70
2019-06-08T13:41:29.014Z,0.70
2019-06-08T13:43:58.103Z,1.00
2019-06-08T13:46:28.308Z,0.60
2019-06-08T13:48:58.683Z,0.70
2019-06-08T13:51:28.852Z,0.70
2019-06-08T13:53:58.513Z,0.72
2019-06-08T13:56:28.612Z,0.88
2019-06-08T13:58:58.395Z,1.35
2019-06-08T14:01:30.797Z,0.70
2019-06-08T14:03:59.384Z,0.68
2019-06-08T14:06:29.020Z,0.70
2019-06-08T14:08:59.164Z,0.80
2019-06-08T14:11:28.815Z,0.90
2019-06-08T14:14:01.344Z,0.70
2019-06-08T14:16:29.934Z,0.60
2019-06-08T14:18:59.635Z,0.90
2019-06-08T14:21:37.810Z,0.70
2019-06-08T14:24:00.704Z,0.80
2019-06-08T14:26:30.339Z,0.60
2019-06-08T14:29:01.611Z,0.53
2019-06-08T14:31:32.169Z,1.12
2019-06-08T14:34:01.964Z,0.72
2019-06-08T14:36:31.626Z,0.80
2019-06-08T14:39:02.494Z,0.80
2019-06-08T14:41:33.907Z,0.97
2019-06-08T14:44:03.551Z,0.80
2019-06-08T14:46:33.181Z,0.85
2019-06-08T14:49:02.839Z,0.80
2019-06-08T14:51:48.906Z,0.80
2019-06-08T14:54:23.543Z,0.95
2019-06-08T14:56:51.288Z,0.80
2019-06-08T14:59:22.041Z,0.98
2019-06-08T15:01:52.279Z,1.00
2019-06-08T15:04:24.930Z,1.12
2019-06-08T15:06:53.272Z,1.62
2019-06-08T15:09:23.479Z,0.95
2019-06-08T15:11:53.286Z,0.78
2019-06-08T15:14:23.705Z,0.65
2019-06-08T15:16:53.497Z,0.70
2019-06-08T15:19:24.335Z,0.70
2019-06-08T15:21:54.196Z,0.70
2019-06-08T15:24:24.647Z,0.53
2019-06-08T15:26:54.373Z,0.85
2019-06-08T15:29:24.958Z,0.60
2019-06-08T15:31:54.653Z,0.33
2019-06-08T15:34:25.232Z,0.70
2019-06-08T15:36:57.447Z,0.62
2019-06-08T15:39:30.375Z,0.98
2019-06-08T15:42:00.021Z,0.80
2019-06-08T15:44:30.396Z,1.20
2019-06-08T15:47:00.391Z,1.00
2019-06-08T15:49:32.674Z,0.60
2019-06-08T15:52:02.481Z,0.70
2019-06-08T15:54:36.201Z,0.88
2019-06-08T15:57:03.470Z,0.62
2019-06-08T15:59:40.772Z,1.02
2019-06-08T16:02:05.682Z,0.93
2019-06-08T16:04:35.321Z,0.88
2019-06-08T16:07:05.651Z,1.32
2019-06-08T16:09:35.440Z,1.10
2019-06-08T16:12:05.477Z,0.90
2019-06-08T16:14:35.108Z,1.10
2019-06-08T16:17:04.759Z,0.80
2019-06-08T16:19:35.860Z,0.78
2019-06-08T16:22:05.745Z,0.70
2019-06-08T16:24:36.508Z,0.60
2019-06-08T16:27:06.112Z,0.80
2019-06-08T16:29:35.750Z,0.70
2019-06-08T16:32:05.402Z,1.15
2019-06-08T16:34:35.624Z,0.80
2019-06-08T16:37:05.572Z,0.78
2019-06-08T16:39:35.267Z,0.80
2019-06-08T16:42:04.958Z,1.07
2019-06-08T16:44:34.849Z,1.05
2019-06-08T16:47:04.838Z,0.93
2019-06-08T16:49:35.420Z,1.10
2019-06-08T16:52:05.218Z,1.02
2019-06-08T16:54:35.080Z,0.90
2019-06-08T16:57:10.598Z,0.70
2019-06-08T16:59:38.574Z,0.80
2019-06-08T17:02:09.839Z,1.02
2019-06-08T17:04:39.442Z,0.80
2019-06-08T17:07:09.074Z,0.65
2019-06-08T17:09:39.908Z,1.20
2019-06-08T17:12:09.780Z,0.40
2019-06-08T17:14:40.643Z,0.82
2019-06-08T17:17:10.550Z,0.90
2019-06-08T17:19:40.414Z,1.15
2019-06-08T17:22:10.156Z,0.60
2019-06-08T17:24:40.744Z,0.70
2019-06-08T17:27:25.774Z,0.80
2019-06-08T17:29:41.968Z,0.50
2019-06-08T17:32:12.604Z,0.45
2019-06-08T17:34:42.507Z,0.72
2019-06-08T17:37:12.192Z,0.60
2019-06-08T17:39:42.244Z,0.70
2019-06-08T17:42:13.687Z,0.50
2019-06-08T17:44:43.339Z,0.78
2019-06-08T17:47:12.978Z,0.70
2019-06-08T17:49:43.383Z,0.80
2019-06-08T17:52:13.139Z,0.75
2019-06-08T17:54:43.315Z,0.80
2019-06-08T17:57:13.156Z,0.70
2019-06-08T17:59:42.804Z,0.65
2019-06-08T18:02:18.081Z,0.60
2019-06-08T18:04:44.517Z,0.70
2019-06-08T18:07:14.187Z,0.50
2019-06-08T18:09:44.826Z,0.78
2019-06-08T18:12:14.852Z,1.00
2019-06-08T18:14:45.239Z,1.00
2019-06-08T18:17:17.722Z,0.90
2019-06-08T18:19:49.625Z,0.85
2019-06-08T18:22:18.873Z,0.80
2019-06-08T18:24:48.615Z,0.80
2019-06-08T18:27:18.387Z,1.10
2019-06-08T18:29:48.838Z,0.60
2019-06-08T18:32:19.748Z,1.20
2019-06-08T18:34:49.395Z,0.80
2019-06-08T18:37:19.027Z,0.80
2019-06-08T18:39:49.365Z,0.95
2019-06-08T18:42:21.552Z,0.93
2019-06-08T18:44:51.190Z,0.98
2019-06-08T18:47:20.854Z,0.85
2019-06-08T18:49:50.491Z,0.93
2019-06-08T18:52:20.133Z,1.20
2019-06-08T18:54:49.982Z,1.12
2019-06-08T18:57:19.703Z,1.60
2019-06-08T18:59:53.073Z,3.50
2019-06-08T19:02:22.007Z,1.65
2019-06-08T19:04:51.646Z,1.50
2019-06-08T19:07:21.476Z,1.35
2019-06-08T19:09:51.571Z,1.45
2019-06-08T19:12:21.211Z,1.37
2019-06-08T19:14:52.355Z,1.20
2019-06-08T19:17:22.309Z,1.70
2019-06-08T19:19:52.550Z,1.40
2019-06-08T19:22:22.459Z,1.07
2019-06-08T19:24:52.112Z,1.40
2019-06-08T19:27:21.752Z,1.70
2019-06-08T19:29:52.434Z,1.55
2019-06-08T19:32:22.238Z,1.65
2019-06-08T19:34:53.959Z,1.62
2019-06-08T19:37:23.233Z,1.57
2019-06-08T19:39:52.896Z,1.70
2019-06-08T19:42:35.658Z,1.57
2019-06-08T19:45:01.120Z,1.47
2019-06-08T19:47:27.587Z,1.65
2019-06-08T19:49:57.917Z,2.05
2019-06-08T19:52:27.613Z,2.50
2019-06-08T19:54:58.068Z,2.12
2019-06-08T19:57:28.382Z,2.10
2019-06-08T20:00:00.378Z,1.55
2019-06-08T20:02:29.538Z,1.50
2019-06-08T20:04:59.155Z,1.80
2019-06-08T20:07:28.763Z,1.42
2019-06-08T20:09:58.530Z,1.20
2019-06-08T20:12:28.349Z,0.95
2019-06-08T20:14:58.103Z,1.60
2019-06-08T20:17:28.437Z,1.47
2019-06-08T20:19:58.534Z,1.75
2019-06-08T20:22:28.354Z,1.20
2019-06-08T20:24:58.057Z,1.37
2019-06-08T20:27:27.855Z,1.22
2019-06-08T20:29:58.234Z,0.85
2019-06-08T20:32:28.319Z,0.80
2019-06-08T20:34:58.202Z,1.00
2019-06-08T20:37:28.443Z,1.50
2019-06-08T20:40:09.781Z,1.80
2019-06-08T20:42:30.819Z,1.80
2019-06-08T20:45:00.693Z,1.72
2019-06-08T20:47:31.797Z,2.27
2019-06-08T20:50:01.509Z,1.30
2019-06-08T20:52:31.204Z,1.60
2019-06-08T20:55:00.841Z,1.47
2019-06-08T20:57:30.495Z,1.52
2019-06-08T21:00:00.159Z,1.85
2019-06-08T21:02:29.799Z,1.95
2019-06-08T21:04:59.726Z,1.30
2019-06-08T21:07:29.489Z,1.22
2019-06-08T21:09:59.239Z,1.50
2019-06-08T21:12:28.906Z,1.30
2019-06-08T21:14:58.537Z,1.30
2019-06-08T21:17:28.167Z,1.50
2019-06-08T21:19:58.106Z,1.75
2019-06-08T21:22:28.000Z,1.52
2019-06-08T21:24:59.887Z,1.80
2019-06-08T21:27:29.051Z,2.20
2019-06-08T21:30:06.743Z,2.08
2019-06-08T21:32:30.092Z,2.27
2019-06-08T21:35:00.847Z,2.60
2019-06-08T21:37:30.480Z,2.37
2019-06-08T21:40:03.651Z,2.50
2019-06-08T21:42:31.581Z,2.02
2019-06-08T21:45:02.904Z,2.08
2019-06-08T21:47:32.572Z,1.87
2019-06-08T21:50:02.162Z,1.92
2019-06-08T21:52:31.796Z,2.20
2019-06-08T21:55:01.439Z,2.35
2019-06-08T21:57:31.148Z,2.33
2019-06-08T22:00:21.647Z,2.62
2019-06-08T22:02:33.698Z,2.40
2019-06-08T22:05:04.846Z,2.42
2019-06-08T22:07:34.791Z,2.35
2019-06-08T22:10:07.575Z,2.30
2019-06-08T22:12:40.190Z,2.30
2019-06-08T22:15:10.098Z,2.50
2019-06-08T22:17:39.785Z,2.80
2019-06-08T22:20:09.730Z,2.17
2019-06-08T22:22:39.469Z,2.42
2019-06-08T22:25:09.120Z,2.55
2019-06-08T22:27:38.768Z,2.80
2019-06-08T22:30:11.630Z,2.52
2019-06-08T22:32:40.218Z,3.33
2019-06-08T22:35:10.754Z,2.80
2019-06-08T22:37:40.413Z,2.58
2019-06-08T22:40:10.353Z,2.50
2019-06-08T22:42:39.996Z,2.80
2019-06-08T22:45:09.957Z,3.00
2019-06-08T22:47:39.606Z,3.10
2019-06-08T22:50:11.646Z,2.55
2019-06-08T22:52:41.309Z,2.55
2019-06-08T22:55:11.326Z,2.70
2019-06-08T22:57:40.992Z,2.67
2019-06-08T23:00:16.632Z,2.83
2019-06-08T23:02:42.860Z,3.00
2019-06-08T23:05:12.505Z,2.60
2019-06-08T23:07:42.187Z,3.20
2019-06-08T23:10:12.150Z,2.72
2019-06-08T23:12:41.843Z,2.80
2019-06-08T23:15:11.700Z,2.77
2019-06-08T23:17:41.356Z,3.00
2019-06-08T23:20:11.599Z,3.02
2019-06-08T23:22:41.259Z,2.85
2019-06-08T23:25:11.501Z,2.52
2019-06-08T23:27:41.169Z,2.72
2019-06-08T23:30:12.253Z,2.60
2019-06-08T23:32:41.947Z,2.80
2019-06-08T23:35:12.286Z,3.08
2019-06-08T23:37:42.015Z,2.80
2019-06-08T23:40:12.053Z,2.45
2019-06-08T23:42:41.712Z,2.83
2019-06-08T23:45:11.769Z,3.10
2019-06-08T23:47:41.421Z,2.52
2019-06-08T23:50:11.731Z,2.52
2019-06-08T23:52:41.527Z,2.45
2019-06-08T23:55:12.051Z,3.02
2019-06-08T23:57:41.822Z,3.02
